Time;durP1;ratioP1;P1;durP2;ratioP2;P2;SDS_P1;SDS_P2;PMS_P1;PMS_P2;Temp;Humidity;BMP_temperature;BMP_pressure;BME280_temperature;BME280_humidity;BME280_pressure;Samples;Min_cycle;Max_cycle;Signal;HPM_P1;HPM_P2
2023/07/04 00:01:48;;;;;;;;;0.75;0.75;;;;;16.20;73.37;100935.28;5044120;28;8887;-65
2023/07/04 00:04:19;;;;;;;;;0.25;0.00;;;;;16.20;73.16;100938.00;5048132;28;8863;-64
2023/07/04 00:06:50;;;;;;;;;0.00;0.00;;;;;16.14;72.90;100938.91;5054901;28;8828;-64
2023/07/04 00:09:17;;;;;;;;;1.50;1.50;;;;;16.15;72.97;100937.84;5059225;28;8997;-65
2023/07/04 00:11:44;;;;;;;;;1.00;1.00;;;;;16.13;72.20;100928.28;5049389;28;8831;-65
2023/07/04 00:14:10;;;;;;;;;0.00;0.00;;;;;16.15;72.14;100934.31;5083134;28;9014;-65
2023/07/04 00:16:37;;;;;;;;;2.00;1.00;;;;;16.14;72.25;100932.66;5049979;28;8827;-65
2023/07/04 00:19:04;;;;;;;;;0.00;0.00;;;;;16.17;72.28;100937.66;5038493;28;8940;-64
2023/07/04 00:21:31;;;;;;;;;1.00;0.00;;;;;16.18;72.45;100934.69;5042875;28;9737;-65
2023/07/04 00:23:58;;;;;;;;;0.00;0.00;;;;;16.20;72.64;100945.31;5050445;28;9046;-64
2023/07/04 00:26:26;;;;;;;;;0.00;0.00;;;;;16.20;72.35;100948.84;5050805;28;9066;-65
2023/07/04 00:28:53;;;;;;;;;0.00;0.00;;;;;16.18;72.17;100953.69;5049199;28;8997;-65
2023/07/04 00:31:23;;;;;;;;;1.00;1.00;;;;;16.17;72.35;100945.78;5046775;28;9684;-65
2023/07/04 00:33:51;;;;;;;;;0.67;0.33;;;;;16.15;72.14;100939.75;5063506;28;8987;-65
2023/07/04 00:36:19;;;;;;;;;0.67;0.67;;;;;16.14;72.13;100944.34;5042878;28;8969;-65
2023/07/04 00:39:06;;;;;;;;;1.67;0.00;;;;;16.15;72.00;100942.47;5047907;28;9013;-65
2023/07/04 00:41:32;;;;;;;;;0.33;0.00;;;;;16.12;72.09;100951.88;5040581;28;8944;-64
2023/07/04 00:44:01;;;;;;;;;1.00;1.00;;;;;16.10;72.25;100948.56;5045185;28;8880;-65
2023/07/04 00:46:38;;;;;;;;;1.67;1.00;;;;;16.05;71.49;100943.84;5044076;28;9141;-65
2023/07/04 00:49:17;;;;;;;;;0.25;0.00;;;;;16.03;71.71;100955.97;5042600;28;8891;-65
2023/07/04 00:51:50;;;;;;;;;0.75;0.00;;;;;16.01;71.09;100952.66;5049315;28;8908;-65
2023/07/04 00:54:19;;;;;;;;;0.00;0.00;;;;;16.00;70.92;100959.13;5048605;28;8819;-64
2023/07/04 00:56:46;;;;;;;;;1.00;0.67;;;;;15.99;71.06;100960.19;5043159;28;8965;-65
2023/07/04 00:59:13;;;;;;;;;0.00;0.00;;;;;15.98;70.90;100953.94;5048356;28;9089;-64
2023/07/04 01:01:42;;;;;;;;;2.00;0.00;;;;;15.98;70.87;100956.66;5049897;28;8976;-65
2023/07/04 01:04:09;;;;;;;;;0.00;0.00;;;;;15.98;70.61;100963.97;5049977;28;9069;-65
2023/07/04 01:06:45;;;;;;;;;0.00;0.00;;;;;15.98;70.61;100969.41;5030504;28;8927;-65
2023/07/04 01:09:14;;;;;;;;;0.00;0.00;;;;;15.95;69.99;100967.13;5049101;28;8894;-64
2023/07/04 01:11:42;;;;;;;;;0.00;0.00;;;;;15.94;70.03;100965.50;5047923;28;9051;-65
2023/07/04 01:14:25;;;;;;;;;0.00;0.00;;;;;15.88;70.32;100964.53;5047831;28;8932;-64
2023/07/04 01:16:54;;;;;;;;;0.00;0.00;;;;;15.86;70.35;100971.22;5048318;28;9029;-64
2023/07/04 01:19:30;;;;;;;;;0.00;0.00;;;;;15.86;70.44;100963.06;5048500;28;9097;-65
2023/07/04 01:22:25;;;;;;;;;0.00;0.00;;;;;15.85;70.30;100964.13;5049747;28;9001;-65
2023/07/04 01:25:20;;;;;;;;;0.00;0.00;;;;;15.82;70.78;100958.09;5044285;28;9238;-65
2023/07/04 01:27:49;;;;;;;;;0.00;0.00;;;;;15.73;70.10;100961.34;5036459;28;9114;-65
2023/07/04 01:30:17;;;;;;;;;0.00;0.00;;;;;15.70;69.88;100957.19;5042867;28;8812;-65
2023/07/04 01:32:44;;;;;;;;;1.00;1.00;;;;;15.70;69.54;100959.06;5048506;28;9101;-65
2023/07/04 01:35:13;;;;;;;;;0.00;0.00;;;;;15.70;69.41;100959.06;5046970;28;9152;-65
2023/07/04 01:37:39;;;;;;;;;0.00;0.00;;;;;15.71;69.66;100950.69;5048910;28;9076;-65
2023/07/04 01:40:09;;;;;;;;;0.00;0.00;;;;;15.74;69.30;100960.28;5043882;28;9077;-65
2023/07/04 01:42:36;;;;;;;;;0.00;0.00;;;;;15.75;69.66;100961.94;5045638;28;9159;-64
2023/07/04 01:45:06;;;;;;;;;0.00;0.00;;;;;15.76;69.84;100963.63;5053435;28;9092;-65
2023/07/04 01:47:34;;;;;;;;;0.00;0.00;;;;;15.76;70.19;100961.72;5048233;28;9089;-64
2023/07/04 01:50:02;;;;;;;;;0.00;0.00;;;;;15.78;70.20;100965.03;5050191;28;9080;-66
2023/07/04 01:52:30;;;;;;;;;0.00;0.00;;;;;15.78;70.17;100967.75;5044621;28;9083;-66
2023/07/04 01:54:57;;;;;;;;;0.00;0.00;;;;;15.75;70.08;100968.19;5083444;28;9058;-66
2023/07/04 01:57:25;;;;;;;;;0.00;0.00;;;;;15.74;70.73;100968.41;5053735;28;8967;-66
2023/07/04 01:59:52;;;;;;;;;0.33;0.00;;;;;15.72;70.88;100957.81;5049844;28;9140;-65
2023/07/04 02:02:18;;;;;;;;;0.00;0.00;;;;;15.71;70.68;100963.44;5041686;28;9210;-66
2023/07/04 02:04:45;;;;;;;;;0.00;0.00;;;;;15.69;70.32;100952.81;5052207;28;9081;-66
2023/07/04 02:07:11;;;;;;;;;0.33;0.33;;;;;15.69;70.40;100952.81;5050456;28;9076;-66
2023/07/04 02:09:38;;;;;;;;;0.00;0.00;;;;;15.70;70.16;100951.75;5050698;28;9082;-65
2023/07/04 02:12:05;;;;;;;;;0.00;0.00;;;;;15.66;69.68;100947.84;5051707;28;9781;-66
2023/07/04 02:14:31;;;;;;;;;0.00;0.00;;;;;15.64;70.09;100941.78;5052018;28;8915;-66
2023/07/04 02:16:58;;;;;;;;;0.00;0.00;;;;;15.63;69.74;100945.53;5044365;28;10037;-65
2023/07/04 02:19:24;;;;;;;;;0.00;0.00;;;;;15.64;69.73;100946.34;5045727;28;9064;-66
2023/07/04 02:21:52;;;;;;;;;0.00;0.00;;;;;15.64;69.82;100946.34;5051305;28;9158;-66
2023/07/04 02:24:18;;;;;;;;;0.00;0.00;;;;;15.64;69.21;100954.50;5040774;28;9050;-65
2023/07/04 02:26:45;;;;;;;;;0.00;0.00;;;;;15.61;69.21;100955.78;5035061;28;9705;-66
2023/07/04 02:29:12;;;;;;;;;0.00;0.00;;;;;15.58;69.03;100957.06;5028235;28;8997;-66
2023/07/04 02:31:39;;;;;;;;;0.00;0.00;;;;;15.59;68.71;100952.47;5051540;28;9065;-66
2023/07/04 02:34:05;;;;;;;;;0.00;0.00;;;;;15.60;68.58;100954.16;5042635;28;9220;-67
2023/07/04 02:36:32;;;;;;;;;1.00;0.00;;;;;15.56;68.45;100951.03;5035834;28;9031;-66
2023/07/04 02:38:59;;;;;;;;;0.00;0.00;;;;;15.55;68.41;100959.38;5049427;28;9868;-66
2023/07/04 02:41:26;;;;;;;;;0.00;0.00;;;;;15.52;68.17;100960.69;5046413;28;8926;-66
2023/07/04 02:43:53;;;;;;;;;1.67;0.00;;;;;15.49;68.23;100958.41;5049708;28;9186;-64
2023/07/04 02:46:19;;;;;;;;;0.00;0.00;;;;;15.51;68.35;100945.44;5048434;28;9733;-66
2023/07/04 02:48:50;;;;;;;;;0.00;0.00;;;;;15.53;68.34;100958.81;5052048;28;8973;-66
2023/07/04 02:51:18;;;;;;;;;1.00;1.00;;;;;15.48;67.94;100951.34;5045329;28;8969;-66
2023/07/04 02:53:44;;;;;;;;;1.00;1.00;;;;;15.48;67.74;100955.94;5048421;28;9050;-66
2023/07/04 02:56:11;;;;;;;;;1.00;0.00;;;;;15.50;67.87;100956.53;5051807;28;9865;-65
2023/07/04 02:58:38;;;;;;;;;0.00;0.00;;;;;15.49;67.51;100955.69;5080423;28;9158;-66
2023/07/04 03:01:05;;;;;;;;;0.00;0.00;;;;;15.50;67.61;100954.63;5050829;28;9055;-66
2023/07/04 03:03:32;;;;;;;;;0.00;0.00;;;;;15.53;67.49;100958.81;5051215;28;9190;-66
2023/07/04 03:06:02;;;;;;;;;0.00;0.00;;;;;15.51;67.08;100955.47;5049890;28;9029;-65
2023/07/04 03:08:30;;;;;;;;;0.33;0.00;;;;;15.51;67.30;100958.19;5049718;28;9726;-66
2023/07/04 03:10:57;;;;;;;;;1.00;1.00;;;;;15.52;67.17;100957.16;5084251;28;9072;-65
2023/07/04 03:13:26;;;;;;;;;0.00;0.00;;;;;15.49;66.43;100957.59;5051012;28;9054;-66
2023/07/04 03:15:53;;;;;;;;;0.00;0.00;;;;;15.50;66.60;100960.06;5073635;28;9244;-65
2023/07/04 03:18:22;;;;;;;;;0.00;0.00;;;;;15.52;66.65;100973.44;5097651;28;10313;-66
2023/07/04 03:20:50;;;;;;;;;0.00;0.00;;;;;15.49;66.37;100963.84;5046966;28;9293;-66
2023/07/04 03:23:17;;;;;;;;;0.00;0.00;;;;;15.48;66.29;100962.19;5050738;28;9150;-66
2023/07/04 03:25:43;;;;;;;;;0.33;0.33;;;;;15.49;66.54;100965.72;5050550;28;9023;-65
2023/07/04 03:28:12;;;;;;;;;0.00;0.00;;;;;15.48;66.35;100966.78;5048409;28;9224;-66
2023/07/04 03:30:39;;;;;;;;;0.00;0.00;;;;;15.47;65.87;100962.38;5058961;28;9907;-65
2023/07/04 03:33:09;;;;;;;;;1.00;1.00;;;;;15.48;66.27;100959.47;5065521;28;9062;-66
2023/07/04 03:35:38;;;;;;;;;0.00;0.00;;;;;15.45;66.29;100970.75;5050471;28;9217;-65
2023/07/04 03:38:25;;;;;;;;;0.00;0.00;;;;;15.39;65.91;100977.06;5046748;28;9344;-66
2023/07/04 03:40:52;;;;;;;;;0.67;0.67;;;;;15.38;65.93;100971.88;5042863;28;8982;-66
2023/07/04 03:43:19;;;;;;;;;0.00;0.00;;;;;15.39;65.94;100973.53;5050095;28;9141;-66
2023/07/04 03:45:48;;;;;;;;;0.00;0.00;;;;;15.38;65.82;100971.88;5040121;28;9841;-66
2023/07/04 03:48:15;;;;;;;;;0.00;0.00;;;;;15.38;66.13;100971.88;5050288;28;9046;-65
2023/07/04 03:50:43;;;;;;;;;1.00;0.00;;;;;15.39;66.20;100973.53;5049159;28;9149;-65
2023/07/04 03:53:10;;;;;;;;;0.00;0.00;;;;;15.39;66.33;100974.34;5048629;28;9692;-66
2023/07/04 03:55:36;;;;;;;;;0.00;0.00;;;;;15.39;66.45;100974.34;5037367;28;9239;-64
2023/07/04 03:58:04;;;;;;;;;0.00;0.00;;;;;15.38;66.40;100977.31;5058377;28;9889;-65
2023/07/04 04:00:31;;;;;;;;;1.67;0.00;;;;;15.36;65.95;100974.00;5065366;28;9000;-66
2023/07/04 04:03:00;;;;;;;;;0.00;0.00;;;;;15.34;66.14;100977.75;5043091;28;9062;-66
2023/07/04 04:05:28;;;;;;;;;0.00;0.00;;;;;15.36;66.00;100972.13;5046550;28;9064;-66
2023/07/04 04:07:55;;;;;;;;;0.00;0.00;;;;;15.36;66.23;100974.00;5041943;28;9764;-65
2023/07/04 04:10:22;;;;;;;;;0.33;0.00;;;;;15.36;66.20;100979.44;5045783;28;9881;-65
2023/07/04 04:12:49;;;;;;;;;0.33;0.00;;;;;15.34;66.04;100966.88;5046490;28;9152;-65
2023/07/04 04:15:15;;;;;;;;;0.00;0.00;;;;;15.32;66.04;100968.19;5048989;28;9003;-65
2023/07/04 04:17:42;;;;;;;;;0.67;0.00;;;;;15.31;65.92;100972.78;5064710;28;9667;-66
2023/07/04 04:20:10;;;;;;;;;0.00;0.00;;;;;15.29;65.63;100972.16;5067601;28;9139;-66
2023/07/04 04:22:43;;;;;;;;;0.00;0.00;;;;;15.32;65.69;100974.44;5043658;28;9133;-66
2023/07/04 04:25:13;;;;;;;;;1.00;0.00;;;;;15.33;65.68;100969.84;5050678;28;9020;-66
2023/07/04 04:27:42;;;;;;;;;1.00;0.67;;;;;15.34;65.97;100971.50;5047440;28;9130;-66
2023/07/04 04:30:10;;;;;;;;;0.00;0.00;;;;;15.37;65.77;100970.22;5032062;28;8929;-65
2023/07/04 04:32:37;;;;;;;;;0.00;0.00;;;;;15.36;65.58;100979.44;5043089;28;9057;-66
2023/07/04 04:35:04;;;;;;;;;1.00;1.00;;;;;15.37;65.54;100983.78;5048218;28;9066;-65
2023/07/04 04:37:32;;;;;;;;;1.00;1.00;;;;;15.37;65.74;100978.38;5047271;28;9069;-66
2023/07/04 04:39:59;;;;;;;;;0.00;0.00;;;;;15.38;65.76;100980.00;5059382;28;9269;-66
2023/07/04 04:42:27;;;;;;;;;0.00;0.00;;;;;15.39;66.18;100982.50;5050409;28;8976;-65
2023/07/04 04:44:53;;;;;;;;;1.00;0.67;;;;;15.41;66.10;100983.13;5058322;28;9092;-65
2023/07/04 04:47:24;;;;;;;;;0.00;0.00;;;;;15.42;66.11;100983.94;5061295;28;8915;-65
2023/07/04 04:49:52;;;;;;;;;0.33;0.33;;;;;15.35;65.54;100989.41;5047479;28;9122;-66
2023/07/04 04:52:19;;;;;;;;;0.67;0.00;;;;;15.29;65.40;100990.31;5030135;28;8975;-65
2023/07/04 04:54:47;;;;;;;;;0.00;0.00;;;;;15.31;65.73;100997.19;5045465;28;8951;-65
2023/07/04 04:57:15;;;;;;;;;0.00;0.00;;;;;15.33;65.43;100994.25;5040261;28;9070;-65
2023/07/04 04:59:42;;;;;;;;;1.00;1.00;;;;;15.32;65.47;100998.84;5044641;28;9015;-66
2023/07/04 05:02:09;;;;;;;;;1.00;0.00;;;;;15.34;65.53;100998.59;5048256;28;9069;-66
2023/07/04 05:04:35;;;;;;;;;0.67;0.33;;;;;15.35;65.18;100997.56;5050590;28;9034;-65
2023/07/04 05:07:02;;;;;;;;;0.33;0.33;;;;;15.37;65.26;100989.22;5049889;28;8923;-66
2023/07/04 05:09:29;;;;;;;;;1.00;1.00;;;;;15.37;65.43;100992.75;5055628;28;8988;-65
2023/07/04 05:11:55;;;;;;;;;0.00;0.00;;;;;15.39;65.34;101006.09;5049432;28;9019;-65
2023/07/04 05:14:22;;;;;;;;;1.33;0.00;;;;;15.41;65.60;101012.13;5040798;28;8994;-65
2023/07/04 05:16:48;;;;;;;;;0.00;0.00;;;;;15.42;65.61;100998.34;5038007;28;9057;-65
2023/07/04 05:19:15;;;;;;;;;0.00;0.00;;;;;15.45;65.37;100988.94;5037022;28;9030;-65
2023/07/04 05:21:41;;;;;;;;;0.33;0.00;;;;;15.47;65.02;100995.78;5043813;28;9114;-66
2023/07/04 05:24:08;;;;;;;;;1.00;1.00;;;;;15.50;65.64;100999.94;5057192;28;9107;-65
2023/07/04 05:26:36;;;;;;;;;3.67;0.00;;;;;15.54;65.41;101001.16;5050521;28;8992;-66
2023/07/04 05:29:04;;;;;;;;;0.00;0.00;;;;;15.56;64.98;101001.78;5046680;28;8941;-65
2023/07/04 05:31:32;;;;;;;;;1.00;0.00;;;;;15.61;64.85;101001.94;5048393;28;8930;-65
2023/07/04 05:33:59;;;;;;;;;1.00;1.00;;;;;15.63;65.14;100997.09;5039474;28;8846;-65
2023/07/04 05:36:28;;;;;;;;;0.00;0.00;;;;;15.66;64.59;101002.09;5034062;28;9023;-65
2023/07/04 05:38:59;;;;;;;;;2.00;0.33;;;;;15.70;64.67;101008.75;5049424;28;8892;-66
2023/07/04 05:41:28;;;;;;;;;0.00;0.00;;;;;15.86;64.78;101009.22;5036068;28;8977;-65
2023/07/04 05:43:57;;;;;;;;;0.33;0.33;;;;;15.97;64.64;101003.06;5049194;28;8837;-66
2023/07/04 05:46:23;;;;;;;;;1.00;1.00;;;;;16.04;63.96;101007.34;5039181;28;8960;-65
2023/07/04 05:48:51;;;;;;;;;0.67;0.67;;;;;16.04;63.98;101015.50;5043348;28;8913;-66
2023/07/04 05:51:19;;;;;;;;;0.00;0.00;;;;;16.03;63.39;101018.44;5048888;28;8935;-64
2023/07/04 05:53:48;;;;;;;;;0.50;0.00;;;;;16.01;63.34;101017.84;5049015;28;8819;-65
2023/07/04 05:56:24;;;;;;;;;2.00;0.75;;;;;16.01;63.71;101010.50;5049228;28;8835;-65
2023/07/04 05:58:56;;;;;;;;;1.25;1.25;;;;;16.06;63.46;101012.53;5047379;28;8892;-65
2023/07/04 06:01:35;;;;;;;;;1.00;1.00;;;;;16.19;63.32;101019.72;5049082;28;8842;-64
2023/07/04 06:04:02;;;;;;;;;1.00;1.00;;;;;16.29;63.20;101023.56;5047976;28;9311;-64
2023/07/04 06:06:32;;;;;;;;;1.00;0.75;;;;;16.32;63.00;101024.97;5048799;28;8893;-64
2023/07/04 06:09:01;;;;;;;;;2.00;1.33;;;;;16.36;62.37;101026.19;5048119;28;8950;-64
2023/07/04 06:11:31;;;;;;;;;0.25;0.25;;;;;16.36;61.91;101026.19;5049192;28;8853;-65
2023/07/04 06:13:58;;;;;;;;;2.00;1.00;;;;;16.35;61.81;101023.69;5049482;28;8811;-64
2023/07/04 06:16:24;;;;;;;;;1.75;0.75;;;;;16.35;61.82;101034.56;5049444;28;9699;-64
2023/07/04 06:18:51;;;;;;;;;2.67;1.00;;;;;16.32;61.88;101030.41;5047901;28;8823;-65
2023/07/04 06:21:21;;;;;;;;;0.00;0.00;;;;;16.34;62.00;101032.91;5048929;28;8915;-64
2023/07/04 06:24:04;;;;;;;;;0.25;0.25;;;;;16.37;62.41;101030.56;5048924;28;8916;-64
2023/07/04 06:26:32;;;;;;;;;2.00;2.00;;;;;16.35;62.25;101042.72;5047753;28;8912;-64
2023/07/04 06:29:00;;;;;;;;;0.00;0.00;;;;;16.37;62.58;101046.88;5049319;28;8989;-64
2023/07/04 06:31:27;;;;;;;;;1.00;1.00;;;;;16.37;62.46;101035.19;5049098;28;9283;-64
2023/07/04 06:33:55;;;;;;;;;0.00;0.00;;;;;16.41;63.08;101044.53;5049692;28;8950;-65
2023/07/04 06:36:21;;;;;;;;;0.00;0.00;;;;;16.48;63.09;101039.81;5049374;28;8904;-64
2023/07/04 06:38:48;;;;;;;;;1.00;1.00;;;;;16.50;63.40;101054.03;5048798;28;8902;-64
2023/07/04 06:41:15;;;;;;;;;1.00;1.00;;;;;16.50;63.76;101056.75;5049654;28;8839;-65
2023/07/04 06:43:45;;;;;;;;;0.00;0.00;;;;;16.44;63.29;101063.06;5051799;28;9552;-64
2023/07/04 06:46:13;;;;;;;;;3.00;2.00;;;;;16.37;62.70;101048.78;5052799;28;9045;-64
2023/07/04 06:48:40;;;;;;;;;2.00;1.67;;;;;16.31;63.12;101054.03;5052758;28;8986;-65
2023/07/04 06:51:12;;;;;;;;;2.50;2.00;;;;;16.30;63.04;101059.69;5052399;28;8984;-65
2023/07/04 06:53:40;;;;;;;;;1.25;0.25;;;;;16.34;63.54;101062.81;5051094;28;8819;-65
2023/07/04 06:56:16;;;;;;;;;0.00;0.00;;;;;16.36;63.32;101066.94;5051423;28;8827;-65
2023/07/04 06:58:46;;;;;;;;;1.00;1.00;;;;;16.36;63.35;101061.50;5052874;28;8909;-64
2023/07/04 07:01:13;;;;;;;;;0.00;0.00;;;;;16.33;62.93;101059.25;5051061;28;8921;-65
2023/07/04 07:03:39;;;;;;;;;0.75;0.75;;;;;16.33;63.63;101075.56;5052539;28;8908;-64
2023/07/04 07:06:08;;;;;;;;;1.00;1.00;;;;;16.29;63.94;101067.03;5052527;28;8835;-64
2023/07/04 07:08:35;;;;;;;;;2.00;2.00;;;;;16.24;64.45;101069.56;5052496;28;8917;-64
2023/07/04 07:11:10;;;;;;;;;1.00;1.00;;;;;16.21;64.92;101072.75;5067598;28;9116;-64
2023/07/04 07:13:38;;;;;;;;;2.67;1.67;;;;;16.20;65.89;101072.97;5052137;28;9119;-64
2023/07/04 07:16:14;;;;;;;;;1.00;1.00;;;;;16.17;66.94;101076.97;5052470;28;8914;-65
2023/07/04 07:18:42;;;;;;;;;0.00;0.00;;;;;16.12;67.41;101082.25;5052460;28;8995;-64
2023/07/04 07:21:12;;;;;;;;;1.00;1.00;;;;;16.09;67.82;101087.31;5052321;28;8936;-65
2023/07/04 07:23:39;;;;;;;;;1.00;1.00;;;;;16.09;68.01;101090.03;5052057;28;8992;-66
2023/07/04 07:26:09;;;;;;;;;1.00;1.00;;;;;16.14;68.53;101084.75;5052018;28;8923;-64
2023/07/04 07:28:40;;;;;;;;;2.00;2.00;;;;;16.21;68.51;101080.91;5049801;28;8827;-66
2023/07/04 07:31:12;;;;;;;;;2.00;1.00;;;;;16.28;68.64;101084.34;5051502;28;9740;-65
2023/07/04 07:33:41;;;;;;;;;1.00;1.00;;;;;16.32;68.36;101082.03;5051516;28;8804;-65
2023/07/04 07:36:12;;;;;;;;;2.00;2.00;;;;;16.29;67.97;101090.66;5051532;28;8970;-64
2023/07/04 07:38:39;;;;;;;;;3.00;1.00;;;;;16.29;68.04;101087.94;5051906;28;9528;-64
2023/07/04 07:41:07;;;;;;;;;1.50;1.00;;;;;16.38;68.00;101093.88;5051486;28;8996;-65
2023/07/04 07:43:36;;;;;;;;;1.00;1.00;;;;;16.51;67.53;101093.72;5051748;28;8835;-65
2023/07/04 07:46:06;;;;;;;;;2.00;1.00;;;;;16.59;67.49;101104.28;5051432;28;8832;-64
2023/07/04 07:48:32;;;;;;;;;2.33;2.00;;;;;16.63;67.36;101108.22;5051398;28;8816;-64
2023/07/04 07:50:59;;;;;;;;;5.00;2.00;;;;;16.61;65.50;101101.34;5050628;28;8928;-65
2023/07/04 07:53:26;;;;;;;;;1.33;1.00;;;;;16.58;64.63;101096.38;5051095;28;9039;-64
2023/07/04 07:55:52;;;;;;;;;2.00;2.00;;;;;16.60;64.08;101092.34;5051141;28;8902;-64
2023/07/04 07:58:19;;;;;;;;;2.00;1.00;;;;;16.62;64.00;101095.69;5051551;28;9162;-65
2023/07/04 08:00:46;;;;;;;;;2.33;2.00;;;;;16.64;64.02;101100.88;5051396;28;8999;-64
2023/07/04 08:03:12;;;;;;;;;1.67;1.67;;;;;16.68;63.85;101096.66;5050919;28;8910;-64
2023/07/04 08:05:40;;;;;;;;;1.67;1.00;;;;;16.62;64.03;101109.28;5051273;28;8991;-64
2023/07/04 08:08:08;;;;;;;;;0.75;0.75;;;;;16.64;63.79;101106.31;5049969;28;8962;-64
2023/07/04 08:10:36;;;;;;;;;2.67;1.00;;;;;16.67;64.10;101095.00;5049660;28;8880;-64
2023/07/04 08:13:03;;;;;;;;;0.25;0.25;;;;;16.68;63.34;101110.25;5051292;28;8980;-64
2023/07/04 08:15:30;;;;;;;;;2.00;2.00;;;;;16.66;63.72;101102.34;5051035;28;8835;-65
2023/07/04 08:17:57;;;;;;;;;1.00;1.00;;;;;16.66;63.43;101106.94;5049272;28;9046;-64
2023/07/04 08:20:23;;;;;;;;;1.00;1.00;;;;;16.62;63.32;101112.00;5050459;28;8819;-65
2023/07/04 08:22:50;;;;;;;;;3.00;2.00;;;;;16.61;62.67;101125.78;5050899;28;8987;-64
2023/07/04 08:25:16;;;;;;;;;3.00;1.00;;;;;16.59;62.61;101126.03;5049631;28;8977;-64
2023/07/04 08:27:42;;;;;;;;;2.00;2.00;;;;;16.54;62.71;101118.56;5050933;28;8991;-64
2023/07/04 08:30:09;;;;;;;;;5.00;2.00;;;;;16.55;62.72;101120.22;5050788;28;9145;-64
2023/07/04 08:32:36;;;;;;;;;2.33;1.00;;;;;16.55;63.11;101130.25;5049206;28;9139;-65
2023/07/04 08:35:03;;;;;;;;;1.00;1.00;;;;;16.56;62.81;101116.44;5050347;28;9071;-64
2023/07/04 08:37:29;;;;;;;;;2.00;1.00;;;;;16.65;63.43;101118.84;5049485;28;8897;-62
2023/07/04 08:39:56;;;;;;;;;0.67;0.67;;;;;16.73;63.34;101108.56;5050666;28;8910;-64
2023/07/04 08:42:26;;;;;;;;;1.00;1.00;;;;;16.83;63.26;101121.59;5050160;28;9056;-64
2023/07/04 08:44:52;;;;;;;;;2.00;1.00;;;;;16.88;62.55;101126.34;5049240;28;9145;-64
2023/07/04 08:47:27;;;;;;;;;0.67;0.67;;;;;16.93;62.28;101134.63;5050050;28;8835;-64
2023/07/04 08:50:19;;;;;;;;;1.50;1.00;;;;;16.92;62.32;101139.25;5050516;28;9054;-65
2023/07/04 08:52:54;;;;;;;;;1.00;1.00;;;;;16.89;61.63;101145.13;5050585;28;8835;-63
2023/07/04 08:55:24;;;;;;;;;0.25;0.25;;;;;16.86;61.04;101139.34;5050164;28;8995;-64
2023/07/04 08:58:02;;;;;;;;;2.00;2.00;;;;;16.86;60.91;101144.78;5050311;28;8839;-64
2023/07/04 09:00:36;;;;;;;;;0.00;0.00;;;;;16.84;60.80;101152.31;5048542;28;8921;-63
2023/07/04 09:03:11;;;;;;;;;0.67;0.67;;;;;16.82;60.66;101152.56;5049206;28;8922;-64
2023/07/04 09:05:56;;;;;;;;;1.00;1.00;;;;;16.79;61.14;101159.28;5049515;28;9125;-64
2023/07/04 09:08:45;;;;;;;;;2.67;1.00;;;;;16.75;60.64;101152.63;5050098;28;9015;-64
2023/07/04 09:11:14;;;;;;;;;1.00;1.00;;;;;16.79;60.61;101161.16;5049965;28;8962;-64
2023/07/04 09:13:44;;;;;;;;;5.00;2.00;;;;;16.79;61.07;101166.59;5048668;28;8982;-64
2023/07/04 09:16:22;;;;;;;;;5.00;3.00;;;;;16.78;61.47;101167.66;5049666;28;9019;-64
2023/07/04 09:18:59;;;;;;;;;2.00;2.00;;;;;16.78;61.87;101176.66;5048601;28;9066;-64
2023/07/04 09:21:29;;;;;;;;;2.00;1.33;;;;;16.72;62.26;101168.53;5049731;28;9077;-64
2023/07/04 09:24:01;;;;;;;;;3.00;2.00;;;;;16.67;62.21;101168.41;5049837;28;9080;-64
2023/07/04 09:26:31;;;;;;;;;2.00;1.00;;;;;16.57;60.70;101174.38;5048668;28;9064;-64
2023/07/04 09:28:58;;;;;;;;;4.67;2.00;;;;;16.55;60.40;101181.91;5049816;28;9026;-64
2023/07/04 09:31:30;;;;;;;;;1.00;1.00;;;;;16.62;59.71;101187.28;5049193;28;9011;-64
2023/07/04 09:34:00;;;;;;;;;1.67;1.67;;;;;16.69;59.82;101185.28;5031861;28;8924;-63
2023/07/04 09:36:32;;;;;;;;;2.00;2.00;;;;;16.82;59.68;101187.09;5049697;28;9053;-64
2023/07/04 09:39:03;;;;;;;;;0.00;0.00;;;;;16.88;60.14;101188.88;5049479;28;8963;-64
2023/07/04 09:41:33;;;;;;;;;1.00;1.00;;;;;17.01;59.94;101199.59;5049446;28;8990;-64
2023/07/04 09:44:19;;;;;;;;;0.00;0.00;;;;;17.09;60.24;101191.13;5048359;28;8976;-65
2023/07/04 09:46:51;;;;;;;;;1.67;1.00;;;;;17.10;59.96;101191.97;5049349;28;8947;-63
2023/07/04 09:49:19;;;;;;;;;2.00;2.00;;;;;17.15;59.78;101203.81;5049498;28;9610;-63
2023/07/04 09:51:59;;;;;;;;;0.00;0.00;;;;;17.05;58.98;101196.22;5063298;28;9008;-64
2023/07/04 09:54:26;;;;;;;;;1.00;1.00;;;;;17.05;59.07;101208.94;5068227;28;8950;-64
2023/07/04 09:56:52;;;;;;;;;1.67;1.67;;;;;16.97;59.56;101210.09;5068186;28;9120;-64
2023/07/04 09:59:28;;;;;;;;;2.00;2.00;;;;;16.99;60.05;101204.44;5102078;28;9065;-64
2023/07/04 10:02:10;;;;;;;;;3.00;1.00;;;;;16.95;60.36;101205.94;5069382;28;9107;-63
2023/07/04 10:04:40;;;;;;;;;1.00;1.00;;;;;16.87;60.71;101207.09;5053047;28;9321;-63
2023/07/04 10:07:15;;;;;;;;;1.00;1.00;;;;;16.91;61.27;101210.19;5049264;28;9004;-63
2023/07/04 10:09:49;;;;;;;;;3.00;3.00;;;;;16.97;61.28;101220.13;5049339;28;8934;-64
2023/07/04 10:12:17;;;;;;;;;2.00;1.00;;;;;17.04;61.81;101218.19;5048918;28;9094;-64
2023/07/04 10:14:47;;;;;;;;;2.00;2.00;;;;;17.04;61.93;101216.28;5047889;28;9096;-64
2023/07/04 10:17:20;;;;;;;;;1.00;0.00;;;;;17.05;62.91;101212.53;5053299;28;8975;-64
2023/07/04 10:19:50;;;;;;;;;1.00;1.00;;;;;17.08;63.06;101213.13;5051634;28;8940;-64
2023/07/04 10:22:31;;;;;;;;;1.00;1.00;;;;;17.15;63.22;101211.16;5052998;28;8926;-64
2023/07/04 10:24:59;;;;;;;;;2.00;1.50;;;;;17.22;63.52;101206.47;5053244;28;8897;-64
2023/07/04 10:27:34;;;;;;;;;0.50;0.50;;;;;17.28;63.37;101210.97;5051618;28;8861;-64
2023/07/04 10:30:07;;;;;;;;;2.33;1.67;;;;;17.30;63.51;101206.16;5052983;28;8828;-64
2023/07/04 10:32:39;;;;;;;;;1.67;1.67;;;;;17.29;63.35;101210.72;5052607;28;8989;-64
2023/07/04 10:35:11;;;;;;;;;2.00;2.00;;;;;17.29;62.54;101208.00;5053072;28;8916;-64
2023/07/04 10:37:39;;;;;;;;;2.00;2.00;;;;;17.36;62.47;101205.22;5052944;28;8925;-63
2023/07/04 10:40:11;;;;;;;;;1.00;1.00;;;;;17.45;62.62;101208.44;5051316;28;8859;-64
2023/07/04 10:42:44;;;;;;;;;1.33;1.33;;;;;17.51;61.80;101211.06;5052570;28;8820;-64
2023/07/04 10:45:14;;;;;;;;;2.25;1.00;;;;;17.60;61.40;101203.41;5052916;28;8940;-64
2023/07/04 10:47:42;;;;;;;;;1.00;1.00;;;;;17.67;60.99;101214.22;5052977;28;8857;-64
2023/07/04 10:50:18;;;;;;;;;2.67;2.67;;;;;17.66;60.98;101207.09;5052914;28;9528;-64
2023/07/04 10:52:49;;;;;;;;;1.25;1.25;;;;;17.70;60.98;101209.13;5052344;28;8910;-64
2023/07/04 10:55:42;;;;;;;;;2.33;2.33;;;;;17.76;60.51;101208.22;5051170;28;8986;-65
2023/07/04 10:58:13;;;;;;;;;2.00;2.00;;;;;17.87;60.64;101205.78;5052421;28;8976;-64
2023/07/04 11:00:46;;;;;;;;;2.00;2.00;;;;;17.95;60.88;101211.72;5051988;28;8909;-64
2023/07/04 11:03:18;;;;;;;;;1.25;1.00;;;;;18.03;60.65;101205.09;5051301;28;8838;-64
2023/07/04 11:05:50;;;;;;;;;1.00;1.00;;;;;18.09;59.88;101206.84;5051247;28;9613;-64
2023/07/04 11:08:22;;;;;;;;;3.00;3.00;;;;;18.05;59.19;101211.13;5052594;28;8843;-65
2023/07/04 11:10:56;;;;;;;;;3.25;2.00;;;;;18.00;58.81;101213.72;5051905;28;8812;-65
2023/07/04 11:13:24;;;;;;;;;1.00;1.00;;;;;17.96;58.30;101213.34;5052313;28;9552;-65
2023/07/04 11:16:05;;;;;;;;;3.00;2.00;;;;;17.86;58.43;101223.97;5050904;28;8831;-64
2023/07/04 11:18:37;;;;;;;;;2.00;2.00;;;;;17.89;59.00;101214.53;5052299;28;9395;-64
2023/07/04 11:21:19;;;;;;;;;3.00;2.00;;;;;17.95;59.50;101206.25;5050581;28;8823;-65
2023/07/04 11:23:50;;;;;;;;;2.00;1.00;;;;;17.99;59.66;101212.06;5051978;28;8836;-65
2023/07/04 11:26:18;;;;;;;;;2.00;2.00;;;;;18.06;59.46;101207.31;5051786;28;8812;-65
2023/07/04 11:29:06;;;;;;;;;5.25;3.00;;;;;18.14;58.59;101208.88;5049798;28;9684;-66
2023/07/04 11:31:34;;;;;;;;;1.00;1.00;;;;;18.09;57.65;101206.84;5051730;28;8885;-64
2023/07/04 11:34:04;;;;;;;;;0.75;0.50;;;;;18.21;56.54;101223.22;5051976;28;8871;-64
2023/07/04 11:36:44;;;;;;;;;1.00;1.00;;;;;18.33;55.97;101213.16;5052235;28;8877;-65
2023/07/04 11:39:31;;;;;;;;;2.50;1.00;;;;;18.38;55.21;101217.91;5051851;28;8828;-65
2023/07/04 11:42:14;;;;;;;;;1.25;1.25;;;;;18.41;55.08;101217.44;5051234;28;8916;-64
2023/07/04 11:45:10;;;;;;;;;1.25;1.25;;;;;18.45;55.36;101224.88;5031598;28;8861;-65
2023/07/04 11:47:47;;;;;;;;;1.75;1.75;;;;;18.38;55.37;101224.16;5051069;28;8833;-65